Time;durP1;ratioP1;P1;durP2;ratioP2;P2;SDS_P1;SDS_P2;PMS_P1;PMS_P2;Temp;Humidity;BMP_temperature;BMP_pressure;BME280_temperature;BME280_humidity;BME280_pressure;Samples;Min_cycle;Max_cycle;Signal;HPM_P1;HPM_P2
2023/07/05 00:01:50;;;;;;;1.77;1.63;;;;;;;;;;5049522;28;20505;-72
2023/07/05 00:04:15;;;;;;;2.03;1.60;;;;;;;;;;5047954;28;20037;-72
2023/07/05 00:06:41;;;;;;;1.52;1.42;;;;;;;;;;5049483;28;20185;-72
2023/07/05 00:09:06;;;;;;;1.80;1.50;;;;;;;;;;5048504;28;20021;-72
2023/07/05 00:11:31;;;;;;;2.55;1.63;;;;;;;;;;5046902;28;20063;-72
2023/07/05 00:13:57;;;;;;;2.33;1.80;;;;;;;;;;5047106;28;20120;-72
2023/07/05 00:16:22;;;;;;;2.78;1.58;;;;;;;;;;5046135;28;20382;-72
2023/07/05 00:18:47;;;;;;;5.20;1.60;;;;;;;;;;5047806;28;20029;-72
2023/07/05 00:21:13;;;;;;;3.13;1.60;;;;;;;;;;5045459;28;20418;-72
2023/07/05 00:23:40;;;;;;;1.65;1.55;;;;;;;;;;5044545;28;20039;-72
2023/07/05 00:26:06;;;;;;;1.65;1.55;;;;;;;;;;5046104;28;20375;-72
2023/07/05 00:28:35;;;;;;;1.63;1.52;;;;;;;;;;5045874;28;20052;-73
2023/07/05 00:31:02;;;;;;;2.95;1.50;;;;;;;;;;5042548;28;20047;-72
2023/07/05 00:33:27;;;;;;;1.60;1.50;;;;;;;;;;5039787;28;20141;-72
2023/07/05 00:35:55;;;;;;;2.35;1.52;;;;;;;;;;5043785;28;20047;-73
2023/07/05 00:38:21;;;;;;;2.05;1.67;;;;;;;;;;5043672;28;20466;-72
2023/07/05 00:40:47;;;;;;;3.45;1.55;;;;;;;;;;5039490;28;20040;-72
2023/07/05 00:43:14;;;;;;;4.25;1.60;;;;;;;;;;5039840;28;20025;-72
2023/07/05 00:46:03;;;;;;;1.73;1.60;;;;;;;;;;5041908;28;20051;-72
2023/07/05 00:48:41;;;;;;;1.70;1.60;;;;;;;;;;5036758;28;20034;-72
2023/07/05 00:51:16;;;;;;;1.92;1.60;;;;;;;;;;5038638;28;20067;-72
2023/07/05 00:53:41;;;;;;;2.38;1.80;;;;;;;;;;5040484;28;20053;-72
2023/07/05 00:56:12;;;;;;;1.92;1.80;;;;;;;;;;5034388;28;20530;-72
2023/07/05 00:58:40;;;;;;;1.45;1.35;;;;;;;;;;5043563;28;20044;-72
2023/07/05 01:01:05;;;;;;;1.75;1.65;;;;;;;;;;5042175;28;20043;-72
2023/07/05 01:03:32;;;;;;;2.17;1.50;;;;;;;;;;5040715;28;20128;-72
2023/07/05 01:05:59;;;;;;;1.52;1.35;;;;;;;;;;5042945;28;20033;-72
2023/07/05 01:08:24;;;;;;;1.92;1.73;;;;;;;;;;5041655;28;20037;-72
2023/07/05 01:11:21;;;;;;;1.60;1.50;;;;;;;;;;5041250;28;20041;-72
2023/07/05 01:13:58;;;;;;;2.10;1.27;;;;;;;;;;5028573;28;20522;-72
2023/07/05 01:16:32;;;;;;;1.70;1.60;;;;;;;;;;5039496;28;20560;-72
2023/07/05 01:19:27;;;;;;;;;;;;;;;;;;5049664;28;20041;-72
2023/07/05 01:22:09;;;;;;;4.28;1.67;;;;;;;;;;5000639;28;20379;-72
2023/07/05 01:24:50;;;;;;;6.55;1.88;;;;;;;;;;5048137;28;20115;-72
2023/07/05 01:27:34;;;;;;;2.65;1.60;;;;;;;;;;5048311;28;20075;-74
2023/07/05 01:30:13;;;;;;;2.13;1.50;;;;;;;;;;5052647;28;20033;-72
2023/07/05 01:32:48;;;;;;;1.80;1.48;;;;;;;;;;5052819;28;20044;-72
2023/07/05 01:35:19;;;;;;;1.63;1.48;;;;;;;;;;5070145;28;20395;-73
2023/07/05 01:37:45;;;;;;;2.65;1.50;;;;;;;;;;5052286;28;20392;-72
2023/07/05 01:40:31;;;;;;;1.85;1.50;;;;;;;;;;5054880;28;20088;-72
2023/07/05 01:42:59;;;;;;;2.58;1.80;;;;;;;;;;5063747;28;20106;-75
2023/07/05 01:45:48;;;;;;;1.80;1.70;;;;;;;;;;5071776;28;20052;-72
2023/07/05 01:48:38;;;;;;;1.90;1.38;;;;;;;;;;5068656;28;20032;-73
2023/07/05 01:51:27;;;;;;;1.70;1.60;;;;;;;;;;5050736;28;20499;-72
2023/07/05 01:54:08;;;;;;;1.70;1.33;;;;;;;;;;5056428;28;20029;-72
2023/07/05 01:57:08;;;;;;;1.88;1.77;;;;;;;;;;5051932;28;20048;-72
2023/07/05 01:59:41;;;;;;;2.47;2.00;;;;;;;;;;5052153;28;20106;-72
2023/07/05 02:02:07;;;;;;;5.05;1.98;;;;;;;;;;5055286;28;20041;-72
2023/07/05 02:04:35;;;;;;;2.33;2.00;;;;;;;;;;5056865;28;20055;-72
2023/07/05 02:07:03;;;;;;;4.10;2.08;;;;;;;;;;5039548;28;20046;-72
2023/07/05 02:09:29;;;;;;;2.40;2.08;;;;;;;;;;5051804;28;20033;-72
2023/07/05 02:11:54;;;;;;;2.10;1.90;;;;;;;;;;5047026;28;20033;-72
2023/07/05 02:14:20;;;;;;;2.40;2.15;;;;;;;;;;5050109;28;20033;-72
2023/07/05 02:16:45;;;;;;;5.95;2.50;;;;;;;;;;5050399;28;20033;-74
2023/07/05 02:19:11;;;;;;;2.38;2.05;;;;;;;;;;5055406;28;20049;-72
2023/07/05 02:21:37;;;;;;;8.07;2.33;;;;;;;;;;5058080;28;20033;-72
2023/07/05 02:24:02;;;;;;;3.28;2.17;;;;;;;;;;5051273;28;20031;-72
2023/07/05 02:26:27;;;;;;;4.75;2.20;;;;;;;;;;5050933;28;20029;-72
2023/07/05 02:28:53;;;;;;;3.17;2.15;;;;;;;;;;5051181;28;20040;-72
2023/07/05 02:31:18;;;;;;;2.38;2.03;;;;;;;;;;5050568;28;20522;-72
2023/07/05 02:33:44;;;;;;;1.95;1.83;;;;;;;;;;5046878;28;20083;-75
2023/07/05 02:36:12;;;;;;;4.22;2.00;;;;;;;;;;5077791;28;20399;-73
2023/07/05 02:38:38;;;;;;;2.42;2.13;;;;;;;;;;5049394;28;20040;-72
2023/07/05 02:41:04;;;;;;;3.08;1.90;;;;;;;;;;5049764;28;20064;-74
2023/07/05 02:43:29;;;;;;;2.70;1.83;;;;;;;;;;5049039;28;20029;-72
2023/07/05 02:48:22;;;;;;;3.67;1.92;;;;;;;;;;5072485;28;20052;-77
2023/07/05 02:50:48;;;;;;;3.65;2.40;;;;;;;;;;5074922;28;20452;-76
2023/07/05 02:53:13;;;;;;;4.10;1.90;;;;;;;;;;5073637;28;20520;-76
2023/07/05 02:55:38;;;;;;;6.47;2.10;;;;;;;;;;5055463;28;20044;-76
2023/07/05 02:58:03;;;;;;;3.00;2.35;;;;;;;;;;5076142;28;20036;-76
2023/07/05 03:00:29;;;;;;;4.72;2.33;;;;;;;;;;5094068;28;20043;-76
2023/07/05 03:02:55;;;;;;;3.28;2.40;;;;;;;;;;5094285;28;20051;-77
2023/07/05 03:05:21;;;;;;;2.33;2.13;;;;;;;;;;5094092;28;20054;-76
2023/07/05 03:07:46;;;;;;;2.47;2.10;;;;;;;;;;5093622;28;20044;-77
2023/07/05 03:10:11;;;;;;;2.22;2.03;;;;;;;;;;5094191;28;20036;-76
2023/07/05 03:12:36;;;;;;;2.45;2.00;;;;;;;;;;5093479;28;20028;-77
2023/07/05 03:15:02;;;;;;;6.05;2.15;;;;;;;;;;5094895;28;20485;-77
2023/07/05 03:17:27;;;;;;;4.60;2.30;;;;;;;;;;5075625;28;20048;-77
2023/07/05 03:19:56;;;;;;;2.58;2.03;;;;;;;;;;5093348;28;20387;-77
2023/07/05 03:22:21;;;;;;;2.85;2.17;;;;;;;;;;5093609;28;20040;-77
2023/07/05 03:24:50;;;;;;;2.35;2.15;;;;;;;;;;5093469;28;20038;-77
2023/07/05 03:27:16;;;;;;;2.30;2.10;;;;;;;;;;5075014;28;20028;-77
2023/07/05 03:29:41;;;;;;;7.95;2.47;;;;;;;;;;5075764;28;20504;-77
2023/07/05 03:32:07;;;;;;;5.40;1.80;;;;;;;;;;5075126;28;20043;-77
2023/07/05 03:34:32;;;;;;;1.92;1.77;;;;;;;;;;5092859;28;20028;-76
2023/07/05 03:36:57;;;;;;;2.40;1.77;;;;;;;;;;5093293;28;20048;-77
2023/07/05 03:39:23;;;;;;;1.95;1.80;;;;;;;;;;5093206;28;20039;-78
2023/07/05 03:41:48;;;;;;;2.00;1.80;;;;;;;;;;5075593;28;20519;-77
2023/07/05 03:44:13;;;;;;;2.55;1.80;;;;;;;;;;5093481;28;20025;-77
2023/07/05 03:46:38;;;;;;;2.25;1.75;;;;;;;;;;5093023;28;20417;-77
2023/07/05 03:49:04;;;;;;;4.53;1.77;;;;;;;;;;5092962;28;20029;-77
2023/07/05 03:51:29;;;;;;;2.25;2.05;;;;;;;;;;5073781;28;20040;-77
2023/07/05 03:53:56;;;;;;;2.70;1.80;;;;;;;;;;5093188;28;20028;-77
2023/07/05 03:56:23;;;;;;;1.52;1.42;;;;;;;;;;5074147;28;20040;-77
2023/07/05 03:58:49;;;;;;;5.18;2.00;;;;;;;;;;5092754;28;20039;-76
2023/07/05 04:01:23;;;;;;;3.22;1.70;;;;;;;;;;5092728;28;20036;-76
2023/07/05 04:03:56;;;;;;;2.35;1.58;;;;;;;;;;5074501;28;20036;-77
2023/07/05 04:06:23;;;;;;;2.47;1.90;;;;;;;;;;5092218;28;20048;-77
2023/07/05 04:08:48;;;;;;;5.78;1.83;;;;;;;;;;5074447;28;20532;-76
2023/07/05 04:11:14;;;;;;;1.45;1.35;;;;;;;;;;5092411;28;20028;-77
2023/07/05 04:13:39;;;;;;;1.90;1.50;;;;;;;;;;5074195;28;20040;-77
2023/07/05 04:16:08;;;;;;;2.25;1.90;;;;;;;;;;5091898;28;20063;-77
2023/07/05 04:18:33;;;;;;;3.28;1.75;;;;;;;;;;5092186;28;20036;-77
2023/07/05 04:20:59;;;;;;;3.75;1.60;;;;;;;;;;5092373;28;20523;-77
2023/07/05 04:23:25;;;;;;;2.95;1.55;;;;;;;;;;5092061;28;20093;-77
2023/07/05 04:26:05;;;;;;;2.17;1.52;;;;;;;;;;5092272;28;20119;-76
2023/07/05 04:28:31;;;;;;;2.25;1.58;;;;;;;;;;5091784;28;20062;-77
2023/07/05 04:30:57;;;;;;;1.67;1.55;;;;;;;;;;5091897;28;20028;-77
2023/07/05 04:33:22;;;;;;;2.28;1.40;;;;;;;;;;5091844;28;20504;-77
2023/07/05 04:35:54;;;;;;;3.15;1.60;;;;;;;;;;5074120;28;20024;-77
2023/07/05 04:38:19;;;;;;;3.30;1.58;;;;;;;;;;5091974;28;20034;-77
2023/07/05 04:40:44;;;;;;;2.55;1.75;;;;;;;;;;5092886;28;20032;-77
2023/07/05 04:43:10;;;;;;;1.77;1.45;;;;;;;;;;5092814;28;20396;-77
2023/07/05 04:45:35;;;;;;;3.55;1.35;;;;;;;;;;5091756;28;20025;-77
2023/07/05 04:48:00;;;;;;;1.63;1.40;;;;;;;;;;5092506;28;20463;-77
2023/07/05 04:50:25;;;;;;;1.95;1.50;;;;;;;;;;5091556;28;20497;-77
2023/07/05 04:52:51;;;;;;;3.00;1.80;;;;;;;;;;5091479;28;20498;-77
2023/07/05 04:55:16;;;;;;;6.22;2.40;;;;;;;;;;5091460;28;20028;-77
2023/07/05 04:57:42;;;;;;;3.63;1.90;;;;;;;;;;5091633;28;20393;-77
2023/07/05 05:00:09;;;;;;;7.20;1.80;;;;;;;;;;5091653;28;20031;-77
2023/07/05 05:02:34;;;;;;;3.60;1.60;;;;;;;;;;5092421;28;20043;-77
2023/07/05 05:05:00;;;;;;;2.00;1.80;;;;;;;;;;5095583;28;20026;-77
2023/07/05 05:07:25;;;;;;;2.20;2.00;;;;;;;;;;5095794;28;20032;-77
2023/07/05 05:09:51;;;;;;;5.38;1.60;;;;;;;;;;5095628;28;20028;-77
2023/07/05 05:12:16;;;;;;;1.95;1.75;;;;;;;;;;5095713;28;20024;-77
2023/07/05 05:14:41;;;;;;;3.30;1.90;;;;;;;;;;5096151;28;20115;-77
2023/07/05 05:17:06;;;;;;;1.85;1.60;;;;;;;;;;5077830;28;20038;-77
2023/07/05 05:19:32;;;;;;;1.95;1.50;;;;;;;;;;5095443;28;20093;-77
2023/07/05 05:21:57;;;;;;;2.45;1.58;;;;;;;;;;5095564;28;20115;-77
2023/07/05 05:24:22;;;;;;;2.53;1.75;;;;;;;;;;5095324;28;20050;-77
2023/07/05 05:26:48;;;;;;;2.00;1.55;;;;;;;;;;5095945;28;20024;-77
2023/07/05 05:29:13;;;;;;;1.55;1.38;;;;;;;;;;5095994;28;20036;-77
2023/07/05 05:31:38;;;;;;;3.70;1.60;;;;;;;;;;5095290;28;20463;-77
2023/07/05 05:34:04;;;;;;;4.00;1.65;;;;;;;;;;5095274;28;20033;-77
2023/07/05 05:36:29;;;;;;;1.65;1.40;;;;;;;;;;5076942;28;20032;-77
2023/07/05 05:38:55;;;;;;;3.05;1.77;;;;;;;;;;5095642;28;20111;-77
2023/07/05 05:41:20;;;;;;;2.50;1.60;;;;;;;;;;5095256;28;20036;-77
2023/07/05 05:43:45;;;;;;;4.90;1.60;;;;;;;;;;5095227;28;20032;-77
2023/07/05 05:46:11;;;;;;;1.67;1.58;;;;;;;;;;5095042;28;20419;-77
2023/07/05 05:48:36;;;;;;;6.82;1.90;;;;;;;;;;5095173;28;20024;-77
2023/07/05 05:51:01;;;;;;;3.90;1.63;;;;;;;;;;5095256;28;20636;-77
2023/07/05 05:53:27;;;;;;;2.42;1.65;;;;;;;;;;5094846;28;20513;-77
2023/07/05 05:55:56;;;;;;;2.55;1.35;;;;;;;;;;5094596;28;20044;-77
2023/07/05 05:58:21;;;;;;;2.33;1.55;;;;;;;;;;5094734;28;20028;-77
2023/07/05 06:00:47;;;;;;;1.77;1.67;;;;;;;;;;5076608;28;20036;-77
2023/07/05 06:03:12;;;;;;;3.35;1.55;;;;;;;;;;5094706;28;20077;-77
2023/07/05 06:05:37;;;;;;;6.00;2.13;;;;;;;;;;5077547;28;20024;-77
2023/07/05 06:08:03;;;;;;;2.53;1.70;;;;;;;;;;5094702;28;20032;-77
2023/07/05 06:10:29;;;;;;;3.20;1.65;;;;;;;;;;5094286;28;20046;-77
2023/07/05 06:12:54;;;;;;;3.13;1.73;;;;;;;;;;5094449;28;20436;-77
2023/07/05 06:15:19;;;;;;;2.15;1.80;;;;;;;;;;5092757;28;20024;-77
2023/07/05 06:17:44;;;;;;;4.57;1.73;;;;;;;;;;5094496;28;20389;-77
2023/07/05 06:20:10;;;;;;;2.55;2.28;;;;;;;;;;5076103;28;20028;-77
2023/07/05 06:22:37;;;;;;;1.70;1.60;;;;;;;;;;5094212;28;20402;-77
2023/07/05 06:25:03;;;;;;;2.40;1.65;;;;;;;;;;5094662;28;20032;-77
2023/07/05 06:27:28;;;;;;;4.30;1.80;;;;;;;;;;5093717;28;20550;-77
2023/07/05 06:29:54;;;;;;;2.25;1.90;;;;;;;;;;5094211;28;20019;-77
2023/07/05 06:32:19;;;;;;;3.67;1.80;;;;;;;;;;5093708;28;20032;-77
2023/07/05 06:34:44;;;;;;;3.05;1.80;;;;;;;;;;5093708;28;20071;-77
2023/07/05 06:37:10;;;;;;;3.95;1.95;;;;;;;;;;5093828;28;20028;-77
2023/07/05 06:39:41;;;;;;;3.60;1.98;;;;;;;;;;5093911;28;20028;-77
2023/07/05 06:42:06;;;;;;;2.85;1.73;;;;;;;;;;5093918;28;20028;-77
2023/07/05 06:44:31;;;;;;;1.63;1.45;;;;;;;;;;5093753;28;20035;-77
2023/07/05 06:46:56;;;;;;;2.40;1.88;;;;;;;;;;5093383;28;20619;-78
2023/07/05 06:49:22;;;;;;;3.03;1.85;;;;;;;;;;5093347;28;20394;-78
2023/07/05 06:51:47;;;;;;;3.67;1.83;;;;;;;;;;5093567;28;20043;-77
2023/07/05 06:54:13;;;;;;;1.85;1.75;;;;;;;;;;5094052;28;20461;-77
2023/07/05 06:56:38;;;;;;;5.20;2.00;;;;;;;;;;5091342;28;20028;-77
2023/07/05 06:59:04;;;;;;;3.10;1.30;;;;;;;;;;5069876;28;20454;-77
2023/07/05 07:01:29;;;;;;;1.80;1.70;;;;;;;;;;5072466;28;20028;-77
2023/07/05 07:03:54;;;;;;;2.00;1.75;;;;;;;;;;5093272;28;20061;-77
2023/07/05 07:06:20;;;;;;;5.47;1.50;;;;;;;;;;5093390;28;20075;-77
2023/07/05 07:08:45;;;;;;;12.23;1.80;;;;;;;;;;5093774;28;20077;-77
2023/07/05 07:11:12;;;;;;;3.88;1.80;;;;;;;;;;5093136;28;20028;-77
2023/07/05 07:13:37;;;;;;;2.00;1.60;;;;;;;;;;5092972;28;20032;-77
2023/07/05 07:16:08;;;;;;;1.50;1.40;;;;;;;;;;5092620;28;20040;-77
2023/07/05 07:18:36;;;;;;;4.93;1.98;;;;;;;;;;5092658;28;20024;-77
2023/07/05 07:21:02;;;;;;;3.67;1.73;;;;;;;;;;5079384;28;20022;-80
2023/07/05 07:23:28;;;;;;;4.53;1.70;;;;;;;;;;5076913;28;20506;-80
2023/07/05 07:26:03;;;;;;;4.22;1.88;;;;;;;;;;5079448;28;20180;-80
2023/07/05 07:28:28;;;;;;;1.60;1.50;;;;;;;;;;5097866;28;20039;-80
2023/07/05 07:30:54;;;;;;;2.92;1.85;;;;;;;;;;5079643;28;20035;-79
2023/07/05 07:33:19;;;;;;;2.22;1.85;;;;;;;;;;5097672;28;20028;-80
2023/07/05 07:35:45;;;;;;;2.35;1.65;;;;;;;;;;5080514;28;20069;-80
2023/07/05 07:38:10;;;;;;;1.95;1.83;;;;;;;;;;5097829;28;20032;-81
2023/07/05 07:40:36;;;;;;;4.28;2.00;;;;;;;;;;5078992;28;20058;-80
2023/07/05 07:43:05;;;;;;;1.63;1.52;;;;;;;;;;5079873;28;20096;-80
2023/07/05 07:45:30;;;;;;;1.60;1.45;;;;;;;;;;5097970;28;20028;-80
2023/07/05 07:47:56;;;;;;;7.28;1.52;;;;;;;;;;5097708;28;20028;-79
2023/07/05 07:50:21;;;;;;;4.32;1.70;;;;;;;;;;5079641;28;20367;-79
2023/07/05 07:52:47;;;;;;;5.25;1.70;;;;;;;;;;5097313;28;20054;-79
2023/07/05 07:55:12;;;;;;;1.73;1.58;;;;;;;;;;5097916;28;20028;-80
2023/07/05 07:57:37;;;;;;;2.65;1.60;;;;;;;;;;5079979;28;20038;-79
2023/07/05 08:00:05;;;;;;;4.93;1.77;;;;;;;;;;5080469;28;20020;-80
2023/07/05 08:02:34;;;;;;;3.45;1.85;;;;;;;;;;5084694;28;20050;-78
2023/07/05 08:04:59;;;;;;;1.70;1.60;;;;;;;;;;5093255;28;20028;-78
2023/07/05 08:07:24;;;;;;;2.50;1.60;;;;;;;;;;5094740;28;20020;-79
2023/07/05 08:09:54;;;;;;;1.60;1.50;;;;;;;;;;5097491;28;20054;-78
2023/07/05 08:12:20;;;;;;;2.35;1.58;;;;;;;;;;5115256;28;20035;-78
2023/07/05 08:14:45;;;;;;;4.20;1.92;;;;;;;;;;5114626;28;20051;-78
2023/07/05 08:17:10;;;;;;;4.38;1.70;;;;;;;;;;5095728;28;20058;-77
2023/07/05 08:19:39;;;;;;;1.70;1.60;;;;;;;;;;5109318;28;20035;-78
2023/07/05 08:22:06;;;;;;;2.10;1.80;;;;;;;;;;5081598;28;20520;-77
2023/07/05 08:24:31;;;;;;;2.47;2.10;;;;;;;;;;5079161;28;20032;-80
2023/07/05 08:26:59;;;;;;;4.65;2.67;;;;;;;;;;5081207;28;20036;-80
2023/07/05 08:29:24;;;;;;;5.75;1.95;;;;;;;;;;5079456;28;20110;-79
2023/07/05 08:31:50;;;;;;;2.25;1.92;;;;;;;;;;5080454;28;20529;-80
2023/07/05 08:34:15;;;;;;;5.65;2.08;;;;;;;;;;5098787;28;20111;-80
2023/07/05 08:36:42;;;;;;;6.60;2.03;;;;;;;;;;5097411;28;20040;-79
2023/07/05 08:39:08;;;;;;;1.95;1.85;;;;;;;;;;5097765;28;20407;-80
2023/07/05 08:41:43;;;;;;;3.00;1.92;;;;;;;;;;5098474;28;20108;-79
2023/07/05 08:44:36;;;;;;;2.50;2.00;;;;;;;;;;5096518;28;20397;-80
2023/07/05 08:47:07;;;;;;;3.92;1.90;;;;;;;;;;5079663;28;20058;-81
2023/07/05 08:49:38;;;;;;;2.92;1.90;;;;;;;;;;5080965;28;20036;-81
2023/07/05 08:52:05;;;;;;;2.60;1.80;;;;;;;;;;5080823;28;20032;-81
2023/07/05 08:54:32;;;;;;;2.28;2.17;;;;;;;;;;5099009;28;20088;-81
2023/07/05 08:57:05;;;;;;;4.82;2.13;;;;;;;;;;5080933;28;20024;-80
2023/07/05 08:59:57;;;;;;;3.40;2.13;;;;;;;;;;5079637;28;20036;-80
2023/07/05 09:02:23;;;;;;;3.17;2.03;;;;;;;;;;5080064;28;20039;-79
2023/07/05 09:04:49;;;;;;;2.58;1.73;;;;;;;;;;5079117;28;20405;-81
2023/07/05 09:07:41;;;;;;;5.85;1.88;;;;;;;;;;5079553;28;20051;-81
2023/07/05 09:10:09;;;;;;;2.70;2.28;;;;;;;;;;5080526;28;20036;-81
2023/07/05 09:12:46;;;;;;;2.00;1.90;;;;;;;;;;5097455;28;20445;-79
2023/07/05 09:15:18;;;;;;;2.97;2.00;;;;;;;;;;5098059;28;20028;-81
2023/07/05 09:17:52;;;;;;;3.78;2.20;;;;;;;;;;5080532;28;20110;-81
2023/07/05 09:20:38;;;;;;;2.55;2.08;;;;;;;;;;5080163;28;20508;-81
2023/07/05 09:23:12;;;;;;;2.58;2.10;;;;;;;;;;5097867;28;20032;-81
2023/07/05 09:25:43;;;;;;;2.05;1.77;;;;;;;;;;5080056;28;20029;-81
2023/07/05 09:28:24;;;;;;;2.42;1.90;;;;;;;;;;5080128;28;20459;-81
2023/07/05 09:30:50;;;;;;;2.15;1.95;;;;;;;;;;5098946;28;20405;-80
2023/07/05 09:33:33;;;;;;;5.15;2.30;;;;;;;;;;5080632;28;20031;-80
2023/07/05 09:36:04;;;;;;;3.53;2.00;;;;;;;;;;5080970;28;20031;-80
2023/07/05 09:38:35;;;;;;;4.38;2.13;;;;;;;;;;5098126;28;20357;-81
2023/07/05 09:41:05;;;;;;;2.30;2.10;;;;;;;;;;5079341;28;20032;-79
2023/07/05 09:43:32;;;;;;;3.05;2.15;;;;;;;;;;5078985;28;20067;-78
2023/07/05 09:46:01;;;;;;;4.45;1.98;;;;;;;;;;5078963;28;20063;-80
2023/07/05 09:48:29;;;;;;;2.65;1.95;;;;;;;;;;5078067;28;20082;-79
2023/07/05 09:50:54;;;;;;;6.53;2.03;;;;;;;;;;5082149;28;20019;-79
2023/07/05 09:53:35;;;;;;;3.33;1.80;;;;;;;;;;5081393;28;20028;-80
2023/07/05 09:56:12;;;;;;;2.35;2.15;;;;;;;;;;5099252;28;20039;-78
2023/07/05 09:58:39;;;;;;;2.20;2.00;;;;;;;;;;5080704;28;20036;-78
2023/07/05 10:01:09;;;;;;;3.13;2.20;;;;;;;;;;5099445;28;20115;-80
2023/07/05 10:03:48;;;;;;;2.72;2.42;;;;;;;;;;5100154;28;20042;-80
2023/07/05 10:06:18;;;;;;;2.75;2.28;;;;;;;;;;5081617;28;20494;-79
2023/07/05 10:08:50;;;;;;;3.78;2.47;;;;;;;;;;5082092;28;20024;-80
2023/07/05 10:11:26;;;;;;;2.88;2.40;;;;;;;;;;5079434;28;20032;-79
2023/07/05 10:14:02;;;;;;;2.85;2.53;;;;;;;;;;5082018;28;20063;-79
2023/07/05 10:16:43;;;;;;;3.45;2.35;;;;;;;;;;5081974;28;20040;-80
2023/07/05 10:19:20;;;;;;;3.33;2.20;;;;;;;;;;5100369;28;20501;-80
2023/07/05 10:21:52;;;;;;;2.25;2.05;;;;;;;;;;5099429;28;20028;-80
2023/07/05 10:24:19;;;;;;;4.78;2.05;;;;;;;;;;5081980;28;20031;-80
2023/07/05 10:26:49;;;;;;;6.22;2.35;;;;;;;;;;5081621;28;20035;-80
2023/07/05 10:29:20;;;;;;;2.90;2.40;;;;;;;;;;5100350;28;20025;-81
2023/07/05 10:31:54;;;;;;;2.28;2.00;;;;;;;;;;5081961;28;20033;-81
2023/07/05 10:34:24;;;;;;;4.95;2.35;;;;;;;;;;5100506;28;20036;-81
2023/07/05 10:36:51;;;;;;;3.55;2.10;;;;;;;;;;5100181;28;20040;-81
2023/07/05 10:39:23;;;;;;;4.75;2.50;;;;;;;;;;5082735;28;20024;-80
2023/07/05 10:41:56;;;;;;;3.17;2.50;;;;;;;;;;5082559;28;20024;-81
2023/07/05 10:44:34;;;;;;;3.30;2.50;;;;;;;;;;5099946;28;20028;-81
2023/07/05 10:47:03;;;;;;;2.60;2.08;;;;;;;;;;5081665;28;20125;-80
2023/07/05 10:49:30;;;;;;;2.83;2.38;;;;;;;;;;5100012;28;20032;-81
2023/07/05 10:52:01;;;;;;;4.72;2.50;;;;;;;;;;5100673;28;20032;-81
2023/07/05 10:54:32;;;;;;;4.43;2.22;;;;;;;;;;5082160;28;20032;-82
2023/07/05 10:57:01;;;;;;;3.10;1.65;;;;;;;;;;5099788;28;20028;-81
2023/07/05 10:59:45;;;;;;;3.17;2.35;;;;;;;;;;5099742;28;20043;-80
2023/07/05 11:02:23;;;;;;;2.00;1.80;;;;;;;;;;5098981;28;20491;-81
2023/07/05 11:04:52;;;;;;;4.05;2.28;;;;;;;;;;5081129;28;20028;-81
2023/07/05 11:07:19;;;;;;;4.18;2.20;;;;;;;;;;5081693;28;20032;-81
2023/07/05 11:09:44;;;;;;;4.50;2.03;;;;;;;;;;5081398;28;20043;-80
2023/07/05 11:12:25;;;;;;;4.97;1.80;;;;;;;;;;5078010;28;20029;-80
2023/07/05 11:14:51;;;;;;;2.30;2.10;;;;;;;;;;5073731;28;20051;-81
2023/07/05 11:17:21;;;;;;;4.53;1.88;;;;;;;;;;5075322;28;20079;-82
2023/07/05 11:19:47;;;;;;;1.85;1.67;;;;;;;;;;5075633;28;20036;-80
2023/07/05 11:22:44;;;;;;;1.70;1.60;;;;;;;;;;5072751;28;20041;-81
2023/07/05 11:25:16;;;;;;;2.00;1.52;;;;;;;;;;5060787;28;20040;-82
2023/07/05 11:27:49;;;;;;;6.13;1.50;;;;;;;;;;5078212;28;20036;-81
2023/07/05 11:30:45;;;;;;;2.05;1.50;;;;;;;;;;5092833;28;20024;-82
2023/07/05 11:33:16;;;;;;;3.08;1.70;;;;;;;;;;5074381;28;20032;-83
2023/07/05 11:35:46;;;;;;;2.60;1.88;;;;;;;;;;5075273;28;20028;-82
2023/07/05 11:38:36;;;;;;;3.65;1.77;;;;;;;;;;5069567;28;20033;-84
2023/07/05 11:41:04;;;;;;;6.18;1.88;;;;;;;;;;5089701;28;20031;-82
2023/07/05 11:43:44;;;;;;;2.28;1.73;;;;;;;;;;5087541;28;20039;-82
2023/07/05 11:46:48;;;;;;;2.42;1.80;;;;;;;;;;5088528;28;20509;-81
2023/07/05 11:49:20;;;;;;;2.58;1.80;;;;;;;;;;5088062;28;20031;-83
2023/07/05 11:51:49;;;;;;;1.50;1.40;;;;;;;;;;5088622;28;20040;-81
2023/07/05 11:54:17;;;;;;;1.67;1.55;;;;;;;;;;5071546;28;20024;-81
2023/07/05 11:56:45;;;;;;;1.58;1.40;;;;;;;;;;5071347;28;20039;-81
2023/07/05 11:59:14;;;;;;;2.25;1.50;;;;;;;;;;5071438;28;20032;-81
2023/07/05 12:01:41;;;;;;;1.67;1.58;;;;;;;;;;5087866;28;20040;-81
2023/07/05 12:04:12;;;;;;;3.28;1.50;;;;;;;;;;5069662;28;20032;-82
2023/07/05 12:06:43;;;;;;;1.70;1.60;;;;;;;;;;5090076;28;20041;-82
2023/07/05 12:09:19;;;;;;;1.25;1.20;;;;;;;;;;5078528;28;20032;-81
2023/07/05 12:11:54;;;;;;;1.58;1.48;;;;;;;;;;5092730;28;20526;-82
2023/07/05 12:14:19;;;;;;;4.30;1.35;;;;;;;;;;5092902;28;20060;-83
2023/07/05 12:16:45;;;;;;;3.08;1.70;;;;;;;;;;5080996;28;20036;-82
2023/07/05 12:19:29;;;;;;;1.50;1.40;;;;;;;;;;5077524;28;20507;-82
2023/07/05 12:21:59;;;;;;;1.50;1.40;;;;;;;;;;5074068;28;20131;-81
2023/07/05 12:24:24;;;;;;;2.38;1.58;;;;;;;;;;5094157;28;20065;-81
2023/07/05 12:26:50;;;;;;;1.77;1.30;;;;;;;;;;5072000;28;20046;-82
2023/07/05 12:29:24;;;;;;;1.88;1.50;;;;;;;;;;5079429;28;20032;-81
2023/07/05 12:32:03;;;;;;;;;;;;;;;;;;5098627;28;20505;-81
2023/07/05 12:34:29;;;;;;;1.35;1.30;;;;;;;;;;5074164;28;19919;-80
2023/07/05 12:36:54;;;;;;;1.77;1.50;;;;;;;;;;5088949;28;20032;-81
2023/07/05 12:39:19;;;;;;;1.85;1.40;;;;;;;;;;5077484;28;20024;-80
2023/07/05 12:42:09;;;;;;;1.30;1.20;;;;;;;;;;5079076;28;20023;-80
2023/07/05 12:44:35;;;;;;;1.95;1.42;;;;;;;;;;5076881;28;20537;-80
2023/07/05 12:47:11;;;;;;;2.70;1.30;;;;;;;;;;5072171;28;20028;-81
2023/07/05 12:49:36;;;;;;;2.25;1.60;;;;;;;;;;5068894;28;20036;-80
2023/07/05 12:52:02;;;;;;;2.25;1.42;;;;;;;;;;5076698;28;20039;-80
2023/07/05 12:54:28;;;;;;;1.50;1.40;;;;;;;;;;5073610;28;20043;-80
2023/07/05 12:56:56;;;;;;;2.13;1.13;;;;;;;;;;5075280;28;20085;-80
2023/07/05 12:59:34;;;;;;;1.38;1.27;;;;;;;;;;5072419;28;20126;-81
2023/07/05 13:02:04;;;;;;;1.40;1.20;;;;;;;;;;5075715;28;20112;-81
2023/07/05 13:04:31;;;;;;;0.85;0.85;;;;;;;;;;5091858;28;20040;-81
2023/07/05 13:06:57;;;;;;;1.10;1.10;;;;;;;;;;5095072;28;20070;-81
2023/07/05 13:09:29;;;;;;;1.10;1.10;;;;;;;;;;5078170;28;20101;-80
2023/07/05 13:11:57;;;;;;;1.23;1.10;;;;;;;;;;5095298;28;20091;-80
2023/07/05 13:14:28;;;;;;;1.55;1.45;;;;;;;;;;5085508;28;20134;-81
2023/07/05 13:16:57;;;;;;;1.00;1.00;;;;;;;;;;5074713;28;20062;-81
2023/07/05 13:19:44;;;;;;;1.27;1.17;;;;;;;;;;5074658;28;20469;-81
2023/07/05 13:22:22;;;;;;;1.45;1.35;;;;;;;;;;5040180;28;21454;-81
2023/07/05 13:24:49;;;;;;;1.40;1.30;;;;;;;;;;5075024;28;20038;-80
2023/07/05 13:27:25;;;;;;;1.20;1.10;;;;;;;;;;5077904;28;20024;-81
2023/07/05 13:29:52;;;;;;;4.25;1.25;;;;;;;;;;5077220;28;20494;-80
2023/07/05 13:32:34;;;;;;;1.00;1.00;;;;;;;;;;5081252;28;20066;-80
2023/07/05 13:34:59;;;;;;;1.45;1.35;;;;;;;;;;5078466;28;20040;-81
2023/07/05 13:37:27;;;;;;;1.20;1.20;;;;;;;;;;5079841;28;20036;-80
2023/07/05 13:39:56;;;;;;;1.20;1.10;;;;;;;;;;5097081;28;20081;-80
2023/07/05 13:42:21;;;;;;;2.10;1.17;;;;;;;;;;5094350;28;20024;-81
2023/07/05 13:44:47;;;;;;;1.23;1.20;;;;;;;;;;5082508;28;20047;-79
2023/07/05 13:47:15;;;;;;;1.33;1.23;;;;;;;;;;5091134;28;20395;-79
2023/07/05 13:49:40;;;;;;;1.42;1.35;;;;;;;;;;5079036;28;20040;-80
2023/07/05 13:52:07;;;;;;;1.75;1.30;;;;;;;;;;5087522;28;20090;-80
2023/07/05 13:54:33;;;;;;;1.40;1.30;;;;;;;;;;5078682;28;20417;-80
2023/07/05 13:56:58;;;;;;;1.67;1.35;;;;;;;;;;5077157;28;20096;-81
2023/07/05 13:59:24;;;;;;;1.20;1.10;;;;;;;;;;5081990;28;20035;-81
2023/07/05 14:01:49;;;;;;;1.17;1.17;;;;;;;;;;5098199;28;20123;-81
2023/07/05 14:04:15;;;;;;;1.50;1.40;;;;;;;;;;5077335;28;20029;-81
2023/07/05 14:06:41;;;;;;;1.80;1.27;;;;;;;;;;5072695;28;20059;-81
2023/07/05 14:09:07;;;;;;;7.57;1.45;;;;;;;;;;5090201;28;20016;-80
2023/07/05 14:11:38;;;;;;;1.60;1.50;;;;;;;;;;5096728;28;20062;-80
2023/07/05 14:14:04;;;;;;;1.67;1.58;;;;;;;;;;5080286;28;20035;-81
2023/07/05 14:16:30;;;;;;;2.83;1.50;;;;;;;;;;5095043;28;20032;-80
2023/07/05 14:18:55;;;;;;;1.50;1.40;;;;;;;;;;5077543;28;20028;-80
2023/07/05 14:21:28;;;;;;;1.50;1.38;;;;;;;;;;5075037;28;20024;-80
2023/07/05 14:23:54;;;;;;;3.20;1.60;;;;;;;;;;5080047;28;20028;-80
2023/07/05 14:26:19;;;;;;;1.30;1.30;;;;;;;;;;5080445;28;20028;-80
2023/07/05 14:28:44;;;;;;;3.45;1.30;;;;;;;;;;5075449;28;20439;-80
2023/07/05 14:31:14;;;;;;;2.05;1.40;;;;;;;;;;5082723;28;20043;-81
2023/07/05 14:33:40;;;;;;;7.80;1.17;;;;;;;;;;5082516;28;20032;-81
2023/07/05 14:36:13;;;;;;;1.50;1.40;;;;;;;;;;5081374;28;20115;-81
2023/07/05 14:38:39;;;;;;;3.35;1.20;;;;;;;;;;5100280;28;20020;-81
2023/07/05 14:41:06;;;;;;;1.27;1.17;;;;;;;;;;5081771;28;20036;-82
2023/07/05 14:43:31;;;;;;;2.35;1.38;;;;;;;;;;5082043;28;20039;-81
2023/07/05 14:45:57;;;;;;;1.10;1.10;;;;;;;;;;5099917;28;20030;-81
2023/07/05 14:48:22;;;;;;;1.58;1.30;;;;;;;;;;5096824;28;20115;-80
2023/07/05 14:50:48;;;;;;;1.35;1.17;;;;;;;;;;5098479;28;20482;-80
2023/07/05 14:53:16;;;;;;;2.40;1.35;;;;;;;;;;5094244;28;20359;-79
2023/07/05 14:55:42;;;;;;;3.88;1.48;;;;;;;;;;5078880;28;20028;-79
2023/07/05 14:58:12;;;;;;;1.00;1.00;;;;;;;;;;5097418;28;20032;-80